Buoy 51659

sailwx.info

Track history (hours):
 
Tides and Currents Weather Stations Pressure Air Temp Water Temp Dewpoint Dewpoint Depression Visibility Wind Speed Wind Dir Waves Ship Positions

Drifting buoy 51659

Last reported at 2016-May-05 08:00 UTC. Time now 2016-May-05 08:35 UTC.
Position S 06°01' W 174°01'.

Water temperature 30.2 ° C

Date/timePositionNaut miles runAvg speedWind from/ knotsBaromVisibWave heightAir tempDewpointWater temp
2016-May-05 08:00S 06°01' W 174°01'2 0.8 30.2
2016-May-05 06:00S 06°00' W 173°59'1 0.8 30.2
2016-May-05 05:00S 06°00' W 173°58'1 0.6 30.2
2016-May-05 04:00S 05°60' W 173°58'2 2.1 30.4
2016-May-05 03:00S 06°01' W 173°56'0 0.1 30.4
2016-May-05 01:00S 06°01' W 173°57'4 0.9 30.5
2016-May-04 21:00S 06°02' W 173°53'0 0.3 30.2
2016-May-04 20:00S 06°02' W 173°53'2 0.8 30.1
2016-May-04 17:00S 06°02' W 173°50'2 2.3 30.1
2016-May-04 16:00S 06°03' W 173°48'2 0.7 30.1
2016-May-04 13:00S 06°04' W 173°46'2 0.3 30.1
2016-May-04 08:00S 06°04' W 173°45'0 0.2 30.1
2016-May-04 06:00S 06°05' W 173°45'0 0.0 30.2
2016-May-04 05:00S 06°05' W 173°45'1 0.6 30.2
2016-May-04 04:00S 06°05' W 173°44'1 0.6 30.2
2016-May-04 02:00S 06°05' W 173°43'1 1.3 30.2
2016-May-04 01:00S 06°05' W 173°44'3 0.5 30.3
2016-May-03 20:00S 06°06' W 173°42'1 0.6 30.1
2016-May-03 18:00S 06°07' W 173°41'1 0.7 30.1
2016-May-03 17:00S 06°08' W 173°42'1 0.7 30.1
2016-May-03 16:00S 06°08' W 173°42'1 0.3 30.1
2016-May-03 13:00S 06°09' W 173°42'1 0.2 30.1
2016-May-03 08:00S 06°10' W 173°41'0 0.0 30.3
2016-May-03 07:00S 06°10' W 173°41'1 0.4 30.3
2016-May-03 05:00S 06°11' W 173°41'1 1.3 30.3
2016-May-03 04:00S 06°12' W 173°42'1 0.7 30.3
2016-May-03 02:00S 06°13' W 173°42'0 0.0 30.3
2016-May-03 01:00S 06°13' W 173°42'0 0.0 30.4
2016-May-02 22:00S 06°13' W 173°42'1 0.5 30.1
2016-May-02 20:00S 06°14' W 173°43'2 0.8 30.0
2016-May-02 18:00S 06°16' W 173°44'4 0.9 30.0
2016-May-02 13:00S 06°17' W 173°48'3 0.4 30.0
2016-May-02 05:00S 06°16' W 173°51'2 1.5 30.0
2016-May-02 04:00S 06°16' W 173°53'4 1.8 30.0
2016-May-02 02:00S 06°14' W 173°56'1 0.2 30.0
2016-May-01 20:00S 06°12' W 173°55'1 1.3 30.0
2016-May-01 19:00S 06°13' W 173°56'3 1.0 30.0
2016-May-01 16:00S 06°10' W 173°57'2 0.8 30.1
2016-May-01 13:00S 06°08' W 173°56'1 0.1 30.2
2016-May-01 08:00S 06°08' W 173°56'1 1.5 30.2
2016-May-01 07:00S 06°07' W 173°55'0 0.0 30.3
2016-May-01 06:00S 06°07' W 173°55'0 0.1 30.3
2016-May-01 05:00S 06°07' W 173°55'1 1.0 30.3
2016-May-01 04:00S 06°06' W 173°55'3 0.5 30.4
2016-Apr-30 21:00S 06°05' W 173°52'0 0.5 30.3
2016-Apr-30 20:00S 06°04' W 173°52'0 0.0 30.2
2016-Apr-30 19:00S 06°04' W 173°52'1 0.7 30.2
2016-Apr-30 17:00S 06°04' W 173°50'0 0.4 30.2
2016-Apr-30 16:00S 06°05' W 173°50'1 1.1 30.2
2016-Apr-30 15:00S 06°05' W 173°49'3 1.3 30.2
2016-Apr-30 13:00S 06°05' W 173°46'0 0.0 30.2
2016-Apr-30 10:00S 06°05' W 173°46'1 1.5 30.3
2016-Apr-30 09:00S 06°05' W 173°45'0 0.0 30.3
2016-Apr-30 08:00S 06°05' W 173°45'2 0.9 30.3
2016-Apr-30 06:00S 06°06' W 173°43'1 0.8 30.4
2016-Apr-30 05:00S 06°06' W 173°43'0 0.1 30.4
2016-Apr-30 04:00S 06°06' W 173°43'2 0.6 30.5
2016-Apr-30 01:00S 06°08' W 173°41'6 0.8 30.6
2016-Apr-29 17:00S 06°12' W 173°37'0 0.0 30.3
2016-Apr-29 16:00S 06°12' W 173°37'3 1.5 30.3
2016-Apr-29 14:00S 06°15' W 173°35'2 0.2 30.3
2016-Apr-29 07:00S 06°16' W 173°34'0 0.0 30.5
2016-Apr-29 06:00S 06°16' W 173°34'0 0.1 30.6
2016-Apr-29 05:00S 06°16' W 173°34'0 0.4 30.7
2016-Apr-29 04:00S 06°16' W 173°34'1 1.1 30.8
2016-Apr-29 03:00S 06°17' W 173°33'1 0.9 30.8
2016-Apr-29 02:00S 06°18' W 173°33'0 0.0 30.8
2016-Apr-29 01:00S 06°18' W 173°33'3 0.6 30.7
2016-Apr-28 20:00S 06°21' W 173°32'2 0.8 30.2
2016-Apr-28 18:00S 06°22' W 173°33'1 0.5 30.2
2016-Apr-28 16:00S 06°23' W 173°33'3 1.6 30.2
2016-Apr-28 14:00S 06°27' W 173°33'0 0.0 30.2
2016-Apr-28 09:00S 06°27' W 173°33'1 1.4 30.2
2016-Apr-28 08:00S 06°28' W 173°33'1 0.6 30.2
2016-Apr-28 06:00S 06°28' W 173°34'1 0.3 30.2
2016-Apr-28 04:00S 06°29' W 173°35'1 0.9 30.2
2016-Apr-28 03:00S 06°29' W 173°36'1 0.5 30.2
2016-Apr-28 01:00S 06°30' W 173°36'5 0.6 30.2
2016-Apr-27 17:00S 06°31' W 173°40'0 0.0 30.2
2016-Apr-27 16:00S 06°31' W 173°40'3 1.4 30.2
2016-Apr-27 14:00S 06°30' W 173°43'0 0.0 30.3
2016-Apr-27 12:00S 06°30' W 173°43'0 0.0 30.3
2016-Apr-27 10:00S 06°30' W 173°43'0 0.2 30.3
2016-Apr-27 08:00S 06°30' W 173°43'1 0.5 30.4
2016-Apr-27 06:00S 06°30' W 173°44'1 0.7 30.4
2016-Apr-27 04:00S 06°28' W 173°44'0 0.1 30.6
2016-Apr-27 03:00S 06°28' W 173°44'1 0.4 30.7
2016-Apr-27 01:00S 06°27' W 173°44'3 0.5 30.6
2016-Apr-26 20:00S 06°25' W 173°43'0 0.0 30.5
2016-Apr-26 19:00S 06°25' W 173°43'1 0.5 30.5
2016-Apr-26 17:00S 06°24' W 173°43'0 0.0 30.5
2016-Apr-26 16:00S 06°24' W 173°43'2 0.6 30.5
2016-Apr-26 13:00S 06°23' W 173°42'2 0.5 30.6
2016-Apr-26 09:00S 06°22' W 173°40'0 0.1 30.7
2016-Apr-26 08:00S 06°22' W 173°40'1 0.4 30.8
2016-Apr-26 06:00S 06°22' W 173°40'0 0.0 30.9
2016-Apr-26 05:00S 06°22' W 173°40'1 0.6 31.1
2016-Apr-26 04:00S 06°21' W 173°39'1 0.6 31.7
2016-Apr-26 03:00S 06°22' W 173°39'0 0.1 32.1
2016-Apr-26 01:00S 06°22' W 173°39'3 0.4 31.7
2016-Apr-25 17:00S 06°23' W 173°36'1 0.6 30.3
2016-Apr-25 16:00S 06°24' W 173°36'0 0.0 30.3
2016-Apr-25 14:00S 06°24' W 173°36'1 1.3 30.4
2016-Apr-25 13:00S 06°24' W 173°35'0 0.0 30.4
2016-Apr-25 10:00S 06°24' W 173°35'   30.6
Track history (hours):
 
Tides and Currents Weather Stations Pressure Air Temp Water Temp Dewpoint Dewpoint Depression Visibility Wind Speed Wind Dir Waves Ship Positions

Drifting buoy 51659

Last reported at 2016-May-05 08:00 UTC. Time now 2016-May-05 08:35 UTC.
Position S 06°01' W 174°01'.

Water temperature 30.2 ° C

Date/timePositionNaut miles runAvg speedWind from/ knotsBaromVisibWave heightAir tempDewpointWater temp
2016-May-05 08:00S 06°01' W 174°01'2 0.8 30.2
2016-May-05 06:00S 06°00' W 173°59'1 0.8 30.2
2016-May-05 05:00S 06°00' W 173°58'1 0.6 30.2
2016-May-05 04:00S 05°60' W 173°58'2 2.1 30.4
2016-May-05 03:00S 06°01' W 173°56'0 0.1 30.4
2016-May-05 01:00S 06°01' W 173°57'4 0.9 30.5
2016-May-04 21:00S 06°02' W 173°53'0 0.3 30.2
2016-May-04 20:00S 06°02' W 173°53'2 0.8 30.1
2016-May-04 17:00S 06°02' W 173°50'2 2.3 30.1
2016-May-04 16:00S 06°03' W 173°48'2 0.7 30.1
2016-May-04 13:00S 06°04' W 173°46'2 0.3 30.1
2016-May-04 08:00S 06°04' W 173°45'0 0.2 30.1
2016-May-04 06:00S 06°05' W 173°45'0 0.0 30.2
2016-May-04 05:00S 06°05' W 173°45'1 0.6 30.2
2016-May-04 04:00S 06°05' W 173°44'1 0.6 30.2
2016-May-04 02:00S 06°05' W 173°43'1 1.3 30.2
2016-May-04 01:00S 06°05' W 173°44'3 0.5 30.3
2016-May-03 20:00S 06°06' W 173°42'1 0.6 30.1
2016-May-03 18:00S 06°07' W 173°41'1 0.7 30.1
2016-May-03 17:00S 06°08' W 173°42'1 0.7 30.1
2016-May-03 16:00S 06°08' W 173°42'1 0.3 30.1
2016-May-03 13:00S 06°09' W 173°42'1 0.2 30.1
2016-May-03 08:00S 06°10' W 173°41'0 0.0 30.3
2016-May-03 07:00S 06°10' W 173°41'1 0.4 30.3
2016-May-03 05:00S 06°11' W 173°41'1 1.3 30.3
2016-May-03 04:00S 06°12' W 173°42'1 0.7 30.3
2016-May-03 02:00S 06°13' W 173°42'0 0.0 30.3
2016-May-03 01:00S 06°13' W 173°42'0 0.0 30.4
2016-May-02 22:00S 06°13' W 173°42'1 0.5 30.1
2016-May-02 20:00S 06°14' W 173°43'2 0.8 30.0
2016-May-02 18:00S 06°16' W 173°44'4 0.9 30.0
2016-May-02 13:00S 06°17' W 173°48'3 0.4 30.0
2016-May-02 05:00S 06°16' W 173°51'2 1.5 30.0
2016-May-02 04:00S 06°16' W 173°53'4 1.8 30.0
2016-May-02 02:00S 06°14' W 173°56'1 0.2 30.0
2016-May-01 20:00S 06°12' W 173°55'1 1.3 30.0
2016-May-01 19:00S 06°13' W 173°56'3 1.0 30.0
2016-May-01 16:00S 06°10' W 173°57'2 0.8 30.1
2016-May-01 13:00S 06°08' W 173°56'1 0.1 30.2
2016-May-01 08:00S 06°08' W 173°56'1 1.5 30.2
2016-May-01 07:00S 06°07' W 173°55'0 0.0 30.3
2016-May-01 06:00S 06°07' W 173°55'0 0.1 30.3
2016-May-01 05:00S 06°07' W 173°55'1 1.0 30.3
2016-May-01 04:00S 06°06' W 173°55'3 0.5 30.4
2016-Apr-30 21:00S 06°05' W 173°52'0 0.5 30.3
2016-Apr-30 20:00S 06°04' W 173°52'0 0.0 30.2
2016-Apr-30 19:00S 06°04' W 173°52'1 0.7 30.2
2016-Apr-30 17:00S 06°04' W 173°50'0 0.4 30.2
2016-Apr-30 16:00S 06°05' W 173°50'1 1.1 30.2
2016-Apr-30 15:00S 06°05' W 173°49'3 1.3 30.2
2016-Apr-30 13:00S 06°05' W 173°46'0 0.0 30.2
2016-Apr-30 10:00S 06°05' W 173°46'1 1.5 30.3
2016-Apr-30 09:00S 06°05' W 173°45'0 0.0 30.3
2016-Apr-30 08:00S 06°05' W 173°45'2 0.9 30.3
2016-Apr-30 06:00S 06°06' W 173°43'1 0.8 30.4
2016-Apr-30 05:00S 06°06' W 173°43'0 0.1 30.4
2016-Apr-30 04:00S 06°06' W 173°43'2 0.6 30.5
2016-Apr-30 01:00S 06°08' W 173°41'6 0.8 30.6
2016-Apr-29 17:00S 06°12' W 173°37'0 0.0 30.3
2016-Apr-29 16:00S 06°12' W 173°37'3 1.5 30.3
2016-Apr-29 14:00S 06°15' W 173°35'2 0.2 30.3
2016-Apr-29 07:00S 06°16' W 173°34'0 0.0 30.5
2016-Apr-29 06:00S 06°16' W 173°34'0 0.1 30.6
2016-Apr-29 05:00S 06°16' W 173°34'0 0.4 30.7
2016-Apr-29 04:00S 06°16' W 173°34'1 1.1 30.8
2016-Apr-29 03:00S 06°17' W 173°33'1 0.9 30.8
2016-Apr-29 02:00S 06°18' W 173°33'0 0.0 30.8
2016-Apr-29 01:00S 06°18' W 173°33'3 0.6 30.7
2016-Apr-28 20:00S 06°21' W 173°32'2 0.8 30.2
2016-Apr-28 18:00S 06°22' W 173°33'1 0.5 30.2
2016-Apr-28 16:00S 06°23' W 173°33'3 1.6 30.2
2016-Apr-28 14:00S 06°27' W 173°33'0 0.0 30.2
2016-Apr-28 09:00S 06°27' W 173°33'1 1.4 30.2
2016-Apr-28 08:00S 06°28' W 173°33'1 0.6 30.2
2016-Apr-28 06:00S 06°28' W 173°34'1 0.3 30.2
2016-Apr-28 04:00S 06°29' W 173°35'1 0.9 30.2
2016-Apr-28 03:00S 06°29' W 173°36'1 0.5 30.2
2016-Apr-28 01:00S 06°30' W 173°36'5 0.6 30.2
2016-Apr-27 17:00S 06°31' W 173°40'0 0.0 30.2
2016-Apr-27 16:00S 06°31' W 173°40'3 1.4 30.2
2016-Apr-27 14:00S 06°30' W 173°43'0 0.0 30.3
2016-Apr-27 12:00S 06°30' W 173°43'0 0.0 30.3
2016-Apr-27 10:00S 06°30' W 173°43'0 0.2 30.3
2016-Apr-27 08:00S 06°30' W 173°43'1 0.5 30.4
2016-Apr-27 06:00S 06°30' W 173°44'1 0.7 30.4
2016-Apr-27 04:00S 06°28' W 173°44'0 0.1 30.6
2016-Apr-27 03:00S 06°28' W 173°44'1 0.4 30.7
2016-Apr-27 01:00S 06°27' W 173°44'3 0.5 30.6
2016-Apr-26 20:00S 06°25' W 173°43'0 0.0 30.5
2016-Apr-26 19:00S 06°25' W 173°43'1 0.5 30.5
2016-Apr-26 17:00S 06°24' W 173°43'0 0.0 30.5
2016-Apr-26 16:00S 06°24' W 173°43'2 0.6 30.5
2016-Apr-26 13:00S 06°23' W 173°42'2 0.5 30.6
2016-Apr-26 09:00S 06°22' W 173°40'0 0.1 30.7
2016-Apr-26 08:00S 06°22' W 173°40'1 0.4 30.8
2016-Apr-26 06:00S 06°22' W 173°40'0 0.0 30.9
2016-Apr-26 05:00S 06°22' W 173°40'1 0.6 31.1
2016-Apr-26 04:00S 06°21' W 173°39'1 0.6 31.7
2016-Apr-26 03:00S 06°22' W 173°39'0 0.1 32.1
2016-Apr-26 01:00S 06°22' W 173°39'3 0.4 31.7
2016-Apr-25 17:00S 06°23' W 173°36'1 0.6 30.3
2016-Apr-25 16:00S 06°24' W 173°36'0 0.0 30.3
2016-Apr-25 14:00S 06°24' W 173°36'1 1.3 30.4
2016-Apr-25 13:00S 06°24' W 173°35'0 0.0 30.4
2016-Apr-25 10:00S 06°24' W 173°35'   30.6

Dump ship's entire track history